Time;durP1;ratioP1;P1;durP2;ratioP2;P2;SDS_P1;SDS_P2;PMS_P1;PMS_P2;Temp;Humidity;BMP_temperature;BMP_pressure;BME280_temperature;BME280_humidity;BME280_pressure;Samples;Min_cycle;Max_cycle;Signal;HPM_P1;HPM_P2
2022/02/28 00:02:27;;;;;;;1.70;1.70;;;;;;;1.27;56.67;102310.58;104132;1280;139570;-74
2022/02/28 00:04:55;;;;;;;1.70;1.70;;;;;;;1.16;56.40;102314.16;104251;1279;109283;-73
2022/02/28 00:07:23;;;;;;;1.80;1.80;;;;;;;1.09;56.74;102315.77;104138;1279;140380;-74
2022/02/28 00:09:51;;;;;;;1.70;1.70;;;;;;;1.00;56.72;102315.56;104298;1280;95140;-74
2022/02/28 00:12:18;;;;;;;1.50;1.50;;;;;;;0.98;57.24;102316.53;104136;1280;110526;-75
2022/02/28 00:14:46;;;;;;;1.60;1.60;;;;;;;0.95;56.93;102318.48;104041;1279;140407;-75
2022/02/28 00:17:14;;;;;;;1.50;1.50;;;;;;;0.96;57.14;102321.34;104095;1279;108657;-76
2022/02/28 00:19:42;;;;;;;1.60;1.60;;;;;;;0.89;57.45;102319.82;103971;1279;140565;-75
2022/02/28 00:22:09;;;;;;;2.00;2.00;;;;;;;0.88;57.55;102316.25;104040;1279;95224;-75
2022/02/28 00:24:37;;;;;;;1.70;1.70;;;;;;;0.97;57.33;102316.81;103941;1279;273305;-74
2022/02/28 00:27:05;;;;;;;1.70;1.70;;;;;;;1.00;57.05;102320.30;103973;1279;138167;-72
2022/02/28 00:29:33;;;;;;;1.60;1.60;;;;;;;0.98;57.32;102321.07;104143;1279;109456;-75
2022/02/28 00:32:01;;;;;;;1.60;1.60;;;;;;;0.97;57.34;102320.52;103965;1280;138122;-74
2022/02/28 00:34:30;;;;;;;1.50;1.50;;;;;;;0.89;57.33;102321.38;103869;1279;95249;-71
2022/02/28 00:37:00;;;;;;;1.70;1.70;;;;;;;0.85;57.68;102323.65;104091;1280;138691;-74
2022/02/28 00:39:28;;;;;;;1.60;1.60;;;;;;;0.90;57.54;102321.25;104043;1279;98023;-74
2022/02/28 00:41:56;;;;;;;1.60;1.60;;;;;;;0.98;57.64;102319.30;103999;1281;109458;-74
2022/02/28 00:44:23;;;;;;;1.50;1.50;;;;;;;1.02;57.58;102311.80;103836;1281;139152;-74
2022/02/28 00:46:51;;;;;;;1.60;1.60;;;;;;;1.05;57.44;102310.90;103938;1281;95228;-74
2022/02/28 00:49:19;;;;;;;1.70;1.70;;;;;;;1.06;57.09;102313.55;103871;1279;140276;-76
2022/02/28 00:51:48;;;;;;;2.00;2.00;;;;;;;1.00;57.55;102310.66;104445;1280;100761;-74
2022/02/28 00:54:16;;;;;;;1.60;1.60;;;;;;;1.01;57.52;102310.89;105647;1281;108255;-73
2022/02/28 00:56:44;;;;;;;1.60;1.60;;;;;;;1.08;57.54;102309.81;105394;1281;138596;-73
2022/02/28 00:59:12;;;;;;;1.60;1.60;;;;;;;1.14;57.01;102308.83;105597;1281;95250;-73
2022/02/28 01:01:40;;;;;;;1.70;1.70;;;;;;;1.11;57.05;102303.81;105363;1281;139360;-73
2022/02/28 01:04:08;;;;;;;1.80;1.80;;;;;;;1.11;57.08;102306.77;105720;1281;100066;-74
2022/02/28 01:06:35;;;;;;;1.70;1.70;;;;;;;1.10;56.90;102303.59;105698;1281;108271;-73
2022/02/28 01:09:04;;;;;;;1.60;1.60;;;;;;;1.12;57.00;102304.89;105307;1281;139795;-74
2022/02/28 01:11:32;;;;;;;1.50;1.50;;;;;;;1.12;57.31;102307.53;105701;1281;95233;-73
2022/02/28 01:14:00;;;;;;;1.90;1.90;;;;;;;1.07;57.02;102309.05;105722;1281;138913;-74
2022/02/28 01:16:28;;;;;;;1.70;1.70;;;;;;;1.08;57.18;102306.27;105835;1281;98957;-73
2022/02/28 01:18:56;;;;;;;1.70;1.70;;;;;;;1.07;57.37;102302.91;105633;1281;138117;-73
2022/02/28 01:21:24;;;;;;;1.70;1.70;;;;;;;1.06;57.20;102298.70;105768;1282;95088;-74
2022/02/28 01:23:51;;;;;;;1.60;1.60;;;;;;;1.08;57.29;102293.02;105748;1281;94955;-73
2022/02/28 01:26:19;;;;;;;1.60;1.60;;;;;;;1.09;57.62;102288.86;105159;1281;138477;-74
2022/02/28 01:28:47;;;;;;;1.70;1.70;;;;;;;1.13;56.73;102289.54;104339;1281;100282;-73
2022/02/28 01:31:15;;;;;;;1.70;1.70;;;;;;;1.15;57.13;102285.23;105153;1281;138870;-74
2022/02/28 01:33:43;;;;;;;1.70;1.70;;;;;;;1.16;57.11;102289.86;105692;1282;94265;-74
2022/02/28 01:36:11;;;;;;;1.80;1.80;;;;;;;1.12;56.92;102291.42;105798;1281;95210;-73
2022/02/28 01:38:38;;;;;;;1.70;1.70;;;;;;;1.09;57.30;102291.47;105636;1281;138764;-74
2022/02/28 01:41:06;;;;;;;1.60;1.60;;;;;;;1.08;57.29;102291.77;105780;1281;100246;-73
2022/02/28 01:43:34;;;;;;;1.60;1.60;;;;;;;1.11;56.92;102293.11;105674;1280;139327;-74
2022/02/28 01:46:02;;;;;;;1.70;1.70;;;;;;;1.09;57.16;102295.83;105755;1281;94419;-75
2022/02/28 01:48:30;;;;;;;1.80;1.80;;;;;;;1.07;57.10;102295.23;105604;1282;94918;-75
2022/02/28 01:50:58;;;;;;;1.70;1.70;;;;;;;1.06;57.14;102301.64;105455;1280;138953;-75
2022/02/28 01:53:26;;;;;;;1.70;1.70;;;;;;;1.07;57.58;102298.20;105556;1282;98910;-73
2022/02/28 01:55:53;;;;;;;1.60;1.60;;;;;;;1.06;56.91;102310.91;105688;1281;137897;-74
2022/02/28 01:58:21;;;;;;;1.70;1.70;;;;;;;1.03;57.51;102313.55;105746;1281;95161;-73
2022/02/28 02:00:49;;;;;;;1.70;1.70;;;;;;;0.93;57.40;102310.37;105628;1281;138251;-75
2022/02/28 02:03:17;;;;;;;1.80;1.80;;;;;;;0.86;57.64;102308.63;105420;1281;110233;-71
2022/02/28 02:05:45;;;;;;;1.70;1.70;;;;;;;0.85;57.62;102312.25;105213;1282;98880;-71
2022/02/28 02:08:16;;;;;;;1.70;1.70;;;;;;;0.88;58.01;102312.95;105122;1281;139653;-72
2022/02/28 02:10:44;;;;;;;1.60;1.60;;;;;;;0.91;57.72;102317.08;105228;1281;95565;-71
2022/02/28 02:13:11;;;;;;;1.70;1.70;;;;;;;0.88;57.80;102322.55;104955;1282;139550;-73
2022/02/28 02:15:40;;;;;;;1.70;1.70;;;;;;;0.79;57.93;102320.25;104437;1281;111069;-74
2022/02/28 02:18:08;;;;;;;1.80;1.80;;;;;;;0.77;58.01;102319.46;104200;1280;99447;-73
2022/02/28 02:20:38;;;;;;;1.50;1.50;;;;;;;0.76;58.19;102318.54;104064;1280;140878;-73
2022/02/28 02:23:10;;;;;;;1.70;1.70;;;;;;;0.79;58.11;102316.39;104070;1282;95781;-70
2022/02/28 02:25:38;;;;;;;1.80;1.80;;;;;;;0.74;58.27;102315.98;104056;1282;139647;-72
2022/02/28 02:28:13;;;;;;;1.80;1.80;;;;;;;0.73;58.43;102313.48;104059;1282;111290;-72
2022/02/28 02:30:55;;;;;;;1.70;1.70;;;;;;;0.77;58.41;102312.80;103937;1282;100062;-71
2022/02/28 02:33:24;;;;;;;1.80;1.80;;;;;;;0.75;57.86;102313.77;103999;1281;140221;-74
2022/02/28 02:35:57;;;;;;;1.70;1.70;;;;;;;0.64;58.42;102315.91;103965;1281;95253;-71
2022/02/28 02:38:26;;;;;;;1.70;1.70;;;;;;;0.63;58.58;102317.95;103853;1279;140741;-72
2022/02/28 02:40:55;;;;;;;2.10;2.00;;;;;;;0.61;58.88;102314.04;104040;1281;110143;-72
2022/02/28 02:43:23;;;;;;;1.70;1.70;;;;;;;0.60;58.63;102312.54;104039;1279;140690;-73
2022/02/28 02:45:51;;;;;;;1.70;1.70;;;;;;;0.54;58.83;102306.33;104037;1279;108898;-73
2022/02/28 02:48:20;;;;;;;1.70;1.70;;;;;;;0.49;58.72;102310.66;103690;1282;95247;-71
2022/02/28 02:50:57;;;;;;;1.80;1.80;;;;;;;0.49;58.91;102310.48;104029;1279;138894;-74
2022/02/28 02:53:25;;;;;;;1.90;1.90;;;;;;;0.48;58.90;102308.73;103825;1279;110234;-73
2022/02/28 02:55:53;;;;;;;1.60;1.60;;;;;;;0.52;59.31;102310.47;103977;1279;140181;-74
2022/02/28 02:58:21;;;;;;;1.60;1.60;;;;;;;0.56;58.81;102313.41;104107;1279;109352;-72
2022/02/28 03:00:52;;;;;;;1.80;1.80;;;;;;;0.58;58.86;102310.52;104223;1279;95217;-74
2022/02/28 03:03:34;;;;;;;1.80;1.80;;;;;;;0.53;58.82;102307.69;104080;1279;140390;-72
2022/02/28 03:06:02;;;;;;;1.70;1.70;;;;;;;0.47;58.85;102311.09;104200;1279;110586;-73
2022/02/28 03:08:32;;;;;;;1.60;1.60;;;;;;;0.47;59.03;102310.57;104119;1279;140106;-73
2022/02/28 03:11:00;;;;;;;1.70;1.70;;;;;;;0.46;59.21;102308.29;103830;1281;109985;-72
2022/02/28 03:13:29;;;;;;;1.80;1.80;;;;;;;0.46;59.02;102306.89;103910;1279;141156;-74
2022/02/28 03:15:57;;;;;;;1.80;1.80;;;;;;;0.42;59.35;102309.82;104126;1279;95861;-74
2022/02/28 03:18:25;;;;;;;1.90;1.90;;;;;;;0.41;59.29;102316.25;103903;1282;110065;-75
2022/02/28 03:20:53;;;;;;;2.20;2.10;;;;;;;0.41;59.21;102317.48;103783;1280;139967;-74
2022/02/28 03:23:21;;;;;;;1.80;1.80;;;;;;;0.40;59.20;102320.90;104193;1279;109247;-72
2022/02/28 03:25:56;;;;;;;1.80;1.80;;;;;;;0.41;59.16;102319.58;103944;1281;141876;-75
2022/02/28 03:28:24;;;;;;;1.90;1.90;;;;;;;0.40;59.01;102318.46;103817;1281;95748;-74
2022/02/28 03:30:52;;;;;;;1.90;1.90;;;;;;;0.42;59.18;102316.79;104064;1280;110401;-73
2022/02/28 03:33:20;;;;;;;1.70;1.70;;;;;;;0.42;59.22;102320.29;103765;1282;139992;-73
2022/02/28 03:35:48;;;;;;;1.70;1.70;;;;;;;0.35;59.05;102317.91;103956;1279;109231;-74
2022/02/28 03:38:16;;;;;;;1.70;1.70;;;;;;;0.33;59.14;102313.78;104415;1281;139584;-74
2022/02/28 03:40:45;;;;;;;2.00;2.00;;;;;;;0.30;59.14;102313.98;103907;1281;95684;-74
2022/02/28 03:43:13;;;;;;;1.90;1.90;;;;;;;0.22;59.50;102318.14;104209;1279;110186;-74
2022/02/28 03:45:58;;;;;;;1.90;1.90;;;;;;;0.27;59.44;102317.00;103726;1281;138000;-75
2022/02/28 03:48:29;;;;;;;1.80;1.80;;;;;;;0.25;59.49;102323.34;104029;1280;109399;-74
2022/02/28 03:51:12;;;;;;;1.90;1.90;;;;;;;0.22;59.40;102327.42;104042;1280;140245;-73
2022/02/28 03:53:40;;;;;;;1.90;1.90;;;;;;;0.15;59.68;102327.64;103930;1281;95200;-74
2022/02/28 03:56:08;;;;;;;1.80;1.80;;;;;;;0.08;59.85;102327.10;104110;1281;140106;-74
2022/02/28 03:58:38;;;;;;;1.70;1.70;;;;;;;0.10;59.60;102326.52;103935;1281;99106;-74
2022/02/28 04:01:07;;;;;;;1.80;1.80;;;;;;;0.14;59.66;102332.82;104424;1281;109113;-74
2022/02/28 04:03:41;;;;;;;1.90;1.90;;;;;;;0.14;59.55;102325.11;103845;1281;139059;-73
2022/02/28 04:06:09;;;;;;;2.00;2.00;;;;;;;0.13;59.43;102325.80;103834;1280;95364;-73
2022/02/28 04:08:39;;;;;;;1.80;1.80;;;;;;;0.17;59.29;102325.78;103740;1281;139963;-74
2022/02/28 04:11:07;;;;;;;1.80;1.80;;;;;;;0.14;59.40;102328.77;104209;1279;98986;-74
2022/02/28 04:13:35;;;;;;;1.80;1.80;;;;;;;0.14;59.61;102330.02;103830;1280;139174;-74
2022/02/28 04:16:03;;;;;;;1.90;1.90;;;;;;;0.14;59.44;102330.02;103857;1281;95155;-74
2022/02/28 04:18:32;;;;;;;1.90;1.90;;;;;;;0.14;59.42;102330.35;103701;1282;95162;-74
2022/02/28 04:21:18;;;;;;;1.80;1.80;;;;;;;0.11;59.32;102330.75;103951;1281;139920;-75
2022/02/28 04:23:48;;;;;;;1.80;1.80;;;;;;;0.10;59.47;102334.55;104046;1280;99471;-75
2022/02/28 04:26:15;;;;;;;1.90;1.90;;;;;;;0.11;59.35;102333.19;103715;1282;139783;-74
2022/02/28 04:28:45;;;;;;;1.80;1.80;;;;;;;0.12;59.18;102337.25;103790;1280;95933;-76
2022/02/28 04:31:13;;;;;;;1.90;1.90;;;;;;;0.08;59.40;102339.17;104264;1279;95250;-74
2022/02/28 04:33:41;;;;;;;1.80;1.80;;;;;;;0.07;59.52;102337.38;103682;1282;138666;-74
2022/02/28 04:36:11;;;;;;;2.00;2.00;;;;;;;0.10;59.23;102345.02;103826;1281;100047;-76
2022/02/28 04:38:39;;;;;;;1.90;1.90;;;;;;;0.10;59.00;102341.89;103965;1280;138388;-74
2022/02/28 04:41:07;;;;;;;1.90;1.90;;;;;;;0.10;58.86;102344.31;104121;1281;95250;-75
2022/02/28 04:43:34;;;;;;;1.90;1.90;;;;;;;0.08;58.98;102344.03;103971;1280;138548;-74
2022/02/28 04:46:02;;;;;;;1.80;1.80;;;;;;;0.09;59.15;102348.09;103939;1281;110494;-74
2022/02/28 04:48:30;;;;;;;1.80;1.80;;;;;;;0.09;59.09;102350.74;103781;1281;99342;-76
2022/02/28 04:51:17;;;;;;;1.90;1.90;;;;;;;0.08;59.17;102348.79;104056;1280;139936;-75
2022/02/28 04:53:45;;;;;;;1.90;1.90;;;;;;;0.03;58.80;102345.72;103858;1281;95756;-73
2022/02/28 04:56:13;;;;;;;1.90;1.90;;;;;;;-0.02;59.22;102347.42;103713;1281;142145;-73
2022/02/28 04:58:41;;;;;;;1.80;1.80;;;;;;;0.00;58.79;102348.92;103896;1281;108794;-75
2022/02/28 05:01:14;;;;;;;1.90;1.90;;;;;;;0.05;59.32;102342.70;103830;1281;98433;-75
2022/02/28 05:03:45;;;;;;;1.90;1.90;;;;;;;0.08;58.83;102343.20;103992;1281;140341;-74
2022/02/28 05:06:13;;;;;;;1.90;1.90;;;;;;;0.04;58.81;102342.43;103917;1281;95889;-74
2022/02/28 05:08:46;;;;;;;1.90;1.90;;;;;;;-0.03;58.74;102345.48;103758;1281;139243;-75
2022/02/28 05:11:15;;;;;;;1.80;1.80;;;;;;;-0.00;59.05;102341.55;103717;1283;109974;-75
2022/02/28 05:13:43;;;;;;;1.90;1.90;;;;;;;-0.03;58.80;102348.92;103689;1281;140433;-76
2022/02/28 05:16:12;;;;;;;1.80;1.80;;;;;;;-0.04;58.92;102343.30;104122;1280;109316;-74
2022/02/28 05:18:40;;;;;;;1.90;1.90;;;;;;;-0.04;58.83;102344.16;104118;1281;95266;-74
2022/02/28 05:21:08;;;;;;;1.90;1.90;;;;;;;-0.09;58.87;102347.42;103867;1281;140186;-74
2022/02/28 05:23:38;;;;;;;1.90;1.90;;;;;;;-0.06;59.16;102350.19;103933;1280;109470;-73
2022/02/28 05:26:11;;;;;;;2.30;2.20;;;;;;;-0.04;59.05;102360.42;104181;1281;142228;-76
2022/02/28 05:28:39;;;;;;;2.00;2.00;;;;;;;-0.08;58.82;102365.81;104070;1281;108270;-76
2022/02/28 05:31:07;;;;;;;1.90;1.90;;;;;;;-0.09;58.64;102369.23;103919;1281;95762;-76
2022/02/28 05:33:36;;;;;;;2.20;2.10;;;;;;;-0.15;58.98;102369.64;103721;1284;142316;-76
2022/02/28 05:36:06;;;;;;;1.80;1.80;;;;;;;-0.17;59.10;102370.27;103931;1282;109944;-74
2022/02/28 05:38:38;;;;;;;1.70;1.70;;;;;;;-0.16;58.86;102372.20;103853;1281;141414;-76
2022/02/28 05:41:07;;;;;;;1.80;1.80;;;;;;;-0.18;58.76;102374.55;103915;1282;109315;-75
2022/02/28 05:43:43;;;;;;;1.90;1.90;;;;;;;-0.18;59.00;102377.39;103610;1281;140775;-75
2022/02/28 05:46:11;;;;;;;1.90;1.90;;;;;;;-0.20;58.83;102384.08;103877;1281;95245;-74
2022/02/28 05:48:59;;;;;;;1.80;1.80;;;;;;;-0.23;59.26;102382.70;103872;1281;110292;-74
2022/02/28 05:51:31;;;;;;;1.90;1.90;;;;;;;-0.22;59.27;102381.89;104081;1284;138322;-74
2022/02/28 05:54:00;;;;;;;1.80;1.80;;;;;;;-0.18;59.05;102380.51;103915;1281;109005;-74
2022/02/28 05:56:29;;;;;;;2.00;2.00;;;;;;;-0.23;58.87;102379.21;103791;1281;139083;-75
2022/02/28 05:58:57;;;;;;;2.00;2.00;;;;;;;-0.23;58.95;102383.91;103932;1281;95226;-75
2022/02/28 06:01:25;;;;;;;1.90;1.90;;;;;;;-0.26;59.30;102384.27;104026;1279;109507;-75
2022/02/28 06:03:53;;;;;;;1.90;1.90;;;;;;;-0.24;59.53;102382.16;103891;1281;140253;-75
2022/02/28 06:06:21;;;;;;;2.00;2.00;;;;;;;-0.17;58.96;102382.65;103854;1282;108954;-74
2022/02/28 06:08:49;;;;;;;2.10;2.10;;;;;;;-0.18;59.16;102384.72;103779;1280;138370;-75
2022/02/28 06:11:16;;;;;;;2.00;2.00;;;;;;;-0.20;59.28;102388.61;103947;1281;95951;-75
2022/02/28 06:13:44;;;;;;;2.00;2.00;;;;;;;-0.15;59.24;102394.27;104040;1282;138935;-74
2022/02/28 06:16:12;;;;;;;1.90;1.90;;;;;;;-0.09;59.07;102399.28;103942;1281;98967;-74
2022/02/28 06:18:40;;;;;;;1.80;1.80;;;;;;;-0.06;59.12;102397.34;103903;1281;108794;-76
2022/02/28 06:21:08;;;;;;;1.90;1.90;;;;;;;-0.02;58.69;102398.05;103895;1280;141375;-75
2022/02/28 06:23:35;;;;;;;2.00;2.00;;;;;;;-0.02;58.89;102396.45;103979;1280;95189;-74
2022/02/28 06:26:03;;;;;;;1.80;1.80;;;;;;;0.03;58.76;102399.66;103779;1281;140500;-74
2022/02/28 06:28:32;;;;;;;1.80;1.80;;;;;;;0.04;58.54;102400.96;103937;1281;99834;-74
2022/02/28 06:31:00;;;;;;;1.80;1.80;;;;;;;0.03;58.68;102407.18;103933;1281;109450;-74
2022/02/28 06:33:28;;;;;;;1.90;1.90;;;;;;;0.05;58.53;102414.45;103936;1281;140560;-73
2022/02/28 06:35:56;;;;;;;1.90;1.90;;;;;;;0.02;58.67;102416.92;103991;1281;95785;-75
2022/02/28 06:38:26;;;;;;;1.90;1.90;;;;;;;0.05;58.71;102421.64;103851;1281;139358;-75
2022/02/28 06:40:53;;;;;;;2.00;2.00;;;;;;;-0.01;58.68;102421.84;104015;1281;98900;-74
2022/02/28 06:43:22;;;;;;;1.80;1.80;;;;;;;0.07;58.97;102422.77;104060;1279;109861;-75
2022/02/28 06:45:50;;;;;;;1.80;1.80;;;;;;;0.15;58.63;102423.85;103976;1279;138778;-74
2022/02/28 06:48:18;;;;;;;2.00;2.00;;;;;;;0.09;58.49;102429.00;104111;1280;96975;-74
2022/02/28 06:50:47;;;;;;;1.90;1.90;;;;;;;-0.02;58.40;102432.45;104016;1280;140131;-75
2022/02/28 06:53:18;;;;;;;1.90;1.90;;;;;;;0.00;58.75;102433.09;104454;1279;99963;-74
2022/02/28 06:55:47;;;;;;;1.80;1.80;;;;;;;0.15;58.27;102434.48;103925;1280;139393;-74
2022/02/28 06:58:21;;;;;;;2.10;2.00;;;;;;;0.18;57.99;102438.69;104027;1279;96482;-75
2022/02/28 07:00:53;;;;;;;1.80;1.80;;;;;;;0.21;58.09;102441.96;104103;1281;95120;-73
2022/02/28 07:03:47;;;;;;;1.80;1.80;;;;;;;0.16;57.59;102443.48;103926;1279;139273;-73
2022/02/28 07:06:22;;;;;;;1.60;1.60;;;;;;;0.10;57.70;102444.94;104115;1279;99413;-74
2022/02/28 07:08:50;;;;;;;1.70;1.70;;;;;;;0.18;57.80;102448.98;104185;1281;142895;-74
2022/02/28 07:11:20;;;;;;;1.70;1.70;;;;;;;0.21;57.21;102452.28;104255;1279;95795;-75
2022/02/28 07:13:48;;;;;;;1.70;1.70;;;;;;;0.22;57.17;102453.73;104077;1279;140389;-74
2022/02/28 07:16:16;;;;;;;1.80;1.80;;;;;;;0.27;57.30;102458.52;104139;1279;111086;-74
2022/02/28 07:18:44;;;;;;;1.90;1.90;;;;;;;0.30;57.33;102459.90;104252;1279;99900;-74
2022/02/28 07:21:11;;;;;;;1.90;1.90;;;;;;;0.35;57.04;102458.23;104016;1279;139481;-72
2022/02/28 07:23:39;;;;;;;1.90;1.90;;;;;;;0.37;56.77;102460.04;104196;1279;95736;-75
2022/02/28 07:26:07;;;;;;;1.70;1.70;;;;;;;0.48;57.05;102460.39;104146;1279;138762;-75
2022/02/28 07:28:35;;;;;;;1.70;1.70;;;;;;;0.64;56.86;102458.34;103984;1281;109261;-74
2022/02/28 07:31:22;;;;;;;1.70;1.70;;;;;;;0.78;56.40;102458.30;104132;1279;100051;-74
2022/02/28 07:33:50;;;;;;;1.70;1.70;;;;;;;0.81;55.84;102460.75;104004;1281;139914;-74
2022/02/28 07:36:18;;;;;;;1.80;1.80;;;;;;;0.82;56.06;102462.02;104140;1281;95640;-73
2022/02/28 07:38:46;;;;;;;1.80;1.80;;;;;;;0.79;55.49;102463.43;104123;1280;137954;-73
2022/02/28 07:41:14;;;;;;;1.70;1.70;;;;;;;0.70;55.65;102465.29;104146;1281;110375;-74
2022/02/28 07:43:41;;;;;;;1.70;1.70;;;;;;;0.73;56.08;102465.61;103980;1281;139490;-73
2022/02/28 07:46:09;;;;;;;1.60;1.60;;;;;;;0.86;56.10;102468.45;104167;1281;109702;-75
2022/02/28 07:48:37;;;;;;;1.60;1.60;;;;;;;0.87;55.58;102472.88;104109;1281;96745;-72
2022/02/28 07:51:04;;;;;;;1.60;1.60;;;;;;;0.87;56.04;102477.29;104069;1280;139079;-74
2022/02/28 07:53:32;;;;;;;1.70;1.70;;;;;;;0.92;55.68;102479.06;104212;1281;110267;-73
2022/02/28 07:56:00;;;;;;;1.70;1.70;;;;;;;1.01;55.55;102478.63;104013;1281;139462;-72
2022/02/28 07:58:28;;;;;;;1.70;1.70;;;;;;;1.06;55.50;102480.80;103920;1281;109722;-73
2022/02/28 08:00:55;;;;;;;1.80;1.80;;;;;;;1.22;55.06;102481.86;104139;1281;95138;-73
2022/02/28 08:03:23;;;;;;;1.80;1.80;;;;;;;1.39;55.20;102487.02;104046;1281;138917;-72
2022/02/28 08:05:51;;;;;;;1.50;1.50;;;;;;;1.56;54.52;102487.23;104148;1281;110185;-73
2022/02/28 08:08:19;;;;;;;1.50;1.50;;;;;;;1.70;54.47;102486.25;103963;1281;140470;-73
2022/02/28 08:10:47;;;;;;;1.50;1.50;;;;;;;1.78;54.82;102488.54;104198;1281;109288;-73
2022/02/28 08:13:14;;;;;;;1.50;1.50;;;;;;;1.81;53.72;102487.95;104197;1281;95636;-73
2022/02/28 08:15:42;;;;;;;1.60;1.60;;;;;;;1.82;53.49;102493.42;104077;1281;139419;-73
2022/02/28 08:18:10;;;;;;;1.60;1.60;;;;;;;1.87;53.76;102493.30;104046;1281;110335;-73
2022/02/28 08:20:38;;;;;;;1.50;1.50;;;;;;;1.89;53.62;102495.14;104070;1281;139431;-74
2022/02/28 08:23:07;;;;;;;1.50;1.50;;;;;;;1.92;53.58;102495.44;104141;1281;109304;-73
2022/02/28 08:25:35;;;;;;;1.50;1.50;;;;;;;2.02;53.33;102499.40;104068;1281;139657;-74
2022/02/28 08:28:03;;;;;;;1.40;1.40;;;;;;;2.08;53.57;102499.80;104133;1281;95183;-72
2022/02/28 08:30:31;;;;;;;1.30;1.30;;;;;;;2.17;53.71;102505.63;104015;1281;108719;-74
2022/02/28 08:33:04;;;;;;;1.30;1.30;;;;;;;2.32;53.31;102503.96;103925;1281;139421;-72
2022/02/28 08:35:31;;;;;;;1.30;1.30;;;;;;;2.34;52.70;102504.24;104134;1281;109179;-73
2022/02/28 08:37:59;;;;;;;1.40;1.40;;;;;;;2.29;52.56;102504.54;103974;1281;140520;-73
2022/02/28 08:40:27;;;;;;;1.30;1.30;;;;;;;2.35;53.08;102505.31;104191;1281;95289;-73
2022/02/28 08:42:56;;;;;;;1.30;1.30;;;;;;;2.47;52.68;102504.40;104059;1281;110122;-73
2022/02/28 08:45:24;;;;;;;1.20;1.20;;;;;;;2.52;52.22;102504.62;104019;1281;139570;-73
2022/02/28 08:47:52;;;;;;;1.30;1.30;;;;;;;2.50;52.22;102502.96;104087;1281;109360;-73
2022/02/28 08:50:20;;;;;;;1.20;1.20;;;;;;;2.55;52.18;102499.80;104055;1281;139113;-73
2022/02/28 08:52:48;;;;;;;1.50;1.50;;;;;;;2.58;52.15;102504.34;104146;1281;95666;-73
2022/02/28 08:55:17;;;;;;;1.30;1.30;;;;;;;2.76;52.31;102506.27;103973;1281;109930;-73
2022/02/28 08:57:44;;;;;;;1.30;1.30;;;;;;;2.91;52.16;102501.41;104026;1281;141368;-71
2022/02/28 09:00:13;;;;;;;1.30;1.30;;;;;;;3.03;51.73;102502.39;103971;1281;108385;-73
2022/02/28 09:02:41;;;;;;;1.30;1.30;;;;;;;3.16;51.62;102505.70;103899;1281;139450;-72
2022/02/28 09:05:09;;;;;;;1.30;1.30;;;;;;;3.27;50.80;102506.11;104138;1281;95196;-73
2022/02/28 09:07:37;;;;;;;1.30;1.30;;;;;;;3.28;50.01;102511.58;103952;1281;140243;-72
2022/02/28 09:10:06;;;;;;;1.20;1.20;;;;;;;3.36;50.64;102512.60;104112;1281;99940;-72
2022/02/28 09:12:34;;;;;;;1.40;1.40;;;;;;;3.57;50.07;102516.37;104090;1281;109210;-72
2022/02/28 09:15:02;;;;;;;1.30;1.30;;;;;;;4.12;48.42;102514.23;103977;1281;139610;-72
2022/02/28 09:17:32;;;;;;;1.00;1.00;;;;;;;6.16;44.47;102508.02;103942;1281;95631;-72
2022/02/28 09:20:00;;;;;;;0.60;0.60;;;;;;;7.79;41.23;102504.65;104015;1281;139846;-72
2022/02/28 09:22:29;;;;;;;0.60;0.60;;;;;;;7.92;40.51;102506.15;104064;1281;99831;-72
2022/02/28 09:24:56;;;;;;;0.60;0.60;;;;;;;7.33;40.04;102506.74;104131;1281;108689;-72
2022/02/28 09:27:26;;;;;;;0.60;0.60;;;;;;;6.96;41.28;102508.60;103915;1281;139668;-73
2022/02/28 09:30:14;;;;;;;0.60;0.60;;;;;;;6.78;42.49;102509.42;104116;1281;95206;-72
2022/02/28 09:32:42;;;;;;;0.70;0.70;;;;;;;6.83;42.35;102509.38;104066;1281;138959;-74
2022/02/28 09:35:11;;;;;;;1.00;1.00;;;;;;;6.78;41.44;102509.97;104049;1281;98309;-73
2022/02/28 09:37:42;;;;;;;0.90;0.90;;;;;;;8.08;39.41;102512.42;103699;1281;138077;-71
2022/02/28 09:40:10;;;;;;;0.70;0.70;;;;;;;9.83;35.92;102508.79;104023;1281;95660;-72
2022/02/28 09:42:39;;;;;;;0.60;0.60;;;;;;;11.72;34.01;102501.55;104005;1281;95656;-73
2022/02/28 09:45:46;;;;;;;0.50;0.40;;;;;;;14.12;31.50;102491.77;103024;1287;138704;-74
2022/02/28 09:48:47;;;;;;;0.40;0.30;;;;;;;15.88;27.06;102497.24;102824;1288;99955;-72
2022/02/28 09:51:53;;;;;;;0.40;0.20;;;;;;;16.78;25.34;102494.89;103331;1281;139604;-72
2022/02/28 09:54:29;;;;;;;0.40;0.20;;;;;;;17.58;25.10;102496.16;104050;1281;95264;-72
2022/02/28 09:57:08;;;;;;;0.40;0.20;;;;;;;18.35;23.13;102495.29;103916;1281;140539;-73
2022/02/28 09:59:52;;;;;;;0.40;0.10;;;;;;;18.56;22.13;102492.23;103991;1281;110206;-72
2022/02/28 10:02:20;;;;;;;0.40;0.10;;;;;;;19.19;22.83;102494.70;103976;1281;140424;-73
2022/02/28 10:04:49;;;;;;;0.40;0.10;;;;;;;19.54;22.40;102498.50;103809;1281;109520;-73
2022/02/28 10:07:25;;;;;;;0.40;0.10;;;;;;;20.05;20.90;102503.27;104035;1281;96939;-73
2022/02/28 10:10:10;;;;;;;0.40;0.10;;;;;;;20.07;20.33;102497.23;104126;1281;139786;-72
2022/02/28 10:12:39;;;;;;;0.40;0.10;;;;;;;20.27;19.51;102493.15;103998;1281;110511;-72
2022/02/28 10:15:12;;;;;;;0.40;0.10;;;;;;;20.70;20.05;102489.54;104087;1281;140990;-73
2022/02/28 10:17:47;;;;;;;0.40;0.10;;;;;;;21.53;19.63;102497.49;104012;1281;109566;-73
2022/02/28 10:20:19;;;;;;;0.40;0.10;;;;;;;22.01;17.72;102491.65;103993;1281;140430;-73
2022/02/28 10:22:57;;;;;;;0.40;0.10;;;;;;;22.28;19.14;102493.39;103968;1281;95339;-73
2022/02/28 10:25:32;;;;;;;0.40;0.10;;;;;;;22.86;16.68;102490.23;104039;1280;108592;-73
2022/02/28 10:28:15;;;;;;;0.40;0.10;;;;;;;23.47;17.17;102489.09;103864;1281;137907;-73
2022/02/28 10:31:15;;;;;;;0.40;0.10;;;;;;;23.87;14.83;102489.13;103697;1281;108394;-74
2022/02/28 10:33:55;;;;;;;0.40;0.10;;;;;;;22.71;15.52;102494.09;103890;1281;139471;-73
2022/02/28 10:36:35;;;;;;;0.40;0.10;;;;;;;22.03;16.19;102502.80;104109;1281;95229;-74
2022/02/28 10:39:10;;;;;;;0.40;0.10;;;;;;;22.87;15.90;102497.95;103974;1281;138355;-73
2022/02/28 10:41:40;;;;;;;0.40;0.10;;;;;;;23.14;15.07;102499.29;104078;1281;99331;-73
2022/02/28 10:44:13;;;;;;;0.40;0.00;;;;;;;22.60;14.42;102492.98;103724;1281;141054;-73
2022/02/28 10:46:43;;;;;;;0.40;0.00;;;;;;;21.74;14.55;102490.50;104157;1281;95234;-72
2022/02/28 10:49:19;;;;;;;0.40;0.00;;;;;;;19.26;18.00;102501.83;103962;1281;95711;-74
2022/02/28 10:51:53;;;;;;;0.40;0.10;;;;;;;17.42;19.42;102497.02;103977;1281;139737;-72
2022/02/28 10:54:29;;;;;;;0.40;0.10;;;;;;;15.91;20.86;102504.90;104022;1280;98809;-72
2022/02/28 10:57:03;;;;;;;0.40;0.10;;;;;;;14.28;22.06;102511.34;103814;1281;140525;-72
2022/02/28 10:59:41;;;;;;;0.40;0.20;;;;;;;13.18;22.54;102517.09;103998;1280;95225;-73
2022/02/28 11:02:20;;;;;;;0.40;0.20;;;;;;;12.54;23.89;102516.31;103735;1282;140428;-72
2022/02/28 11:04:49;;;;;;;0.40;0.20;;;;;;;11.69;24.22;102517.95;104025;1281;110174;-73
2022/02/28 11:07:23;;;;;;;0.40;0.20;;;;;;;11.14;25.61;102513.45;103872;1281;99461;-74
2022/02/28 11:09:51;;;;;;;0.40;0.30;;;;;;;10.47;26.33;102517.23;103749;1281;139075;-73
2022/02/28 11:12:30;;;;;;;0.40;0.40;;;;;;;9.88;26.79;102519.15;103815;1282;95258;-73
2022/02/28 11:15:04;;;;;;;0.40;0.30;;;;;;;9.36;27.36;102519.25;104133;1280;139002;-74
2022/02/28 11:17:33;;;;;;;0.50;0.40;;;;;;;9.07;27.91;102516.38;104081;1281;109802;-74
2022/02/28 11:20:08;;;;;;;0.40;0.40;;;;;;;8.87;28.57;102511.13;103651;1282;140062;-72
2022/02/28 11:22:37;;;;;;;0.50;0.40;;;;;;;8.35;29.13;102514.35;104007;1281;109420;-73
2022/02/28 11:25:09;;;;;;;0.50;0.50;;;;;;;7.84;30.25;102517.67;103835;1282;95625;-73
2022/02/28 11:27:39;;;;;;;0.60;0.60;;;;;;;7.66;31.75;102514.85;104035;1281;140247;-73
2022/02/28 11:30:17;;;;;;;0.60;0.60;;;;;;;7.64;31.40;102509.50;104375;1281;109747;-73
2022/02/28 11:32:55;;;;;;;0.60;0.60;;;;;;;7.61;31.55;102510.85;103736;1282;140023;-73